createdAt,value
2023-02-17T00:00:43.034Z,12.80
2023-02-17T00:03:14.009Z,11.67
2023-02-17T00:05:45.954Z,13.27
2023-02-17T00:08:16.964Z,11.00
2023-02-17T00:10:49.627Z,11.60
2023-02-17T00:13:20.595Z,11.57
2023-02-17T00:15:51.592Z,12.60
2023-02-17T00:18:22.486Z,13.87
2023-02-17T00:20:53.334Z,12.93
2023-02-17T00:23:24.250Z,15.60
2023-02-17T00:25:55.469Z,15.77
2023-02-17T00:28:26.467Z,16.07
2023-02-17T00:30:57.629Z,16.93
2023-02-17T00:33:29.031Z,14.47
2023-02-17T00:36:00.036Z,13.40
2023-02-17T00:38:31.656Z,12.43
2023-02-17T00:41:02.688Z,12.73
2023-02-17T00:43:33.707Z,15.07
2023-02-17T00:46:05.029Z,13.40
2023-02-17T00:48:36.540Z,13.83
2023-02-17T00:51:08.546Z,13.63
2023-02-17T00:53:39.866Z,13.10
2023-02-17T00:56:11.478Z,13.90
2023-02-17T00:58:43.134Z,13.70
2023-02-17T01:01:14.205Z,13.77
2023-02-17T01:03:45.155Z,12.77
2023-02-17T01:06:19.758Z,15.07
2023-02-17T01:08:50.854Z,13.93
2023-02-17T01:11:22.986Z,14.63
2023-02-17T01:13:54.422Z,13.97
2023-02-17T01:16:28.095Z,14.00
2023-02-17T01:18:59.323Z,13.77
2023-02-17T01:21:32.169Z,12.43
2023-02-17T01:24:05.601Z,13.20
2023-02-17T01:26:39.311Z,14.00
2023-02-17T01:29:10.685Z,12.83
2023-02-17T01:31:42.501Z,12.30
2023-02-17T01:34:14.037Z,14.63
2023-02-17T01:36:44.954Z,13.83
2023-02-17T01:39:17.318Z,13.63
2023-02-17T01:41:49.229Z,12.87
2023-02-17T01:44:22.182Z,12.53
2023-02-17T01:46:54.567Z,12.10
2023-02-17T01:49:33.219Z,11.57
2023-02-17T01:52:09.871Z,10.80
2023-02-17T01:54:44.503Z,11.23
2023-02-17T01:57:18.023Z,10.37
2023-02-17T01:59:49.413Z,10.33
2023-02-17T02:02:21.358Z,11.90
2023-02-17T02:04:54.617Z,10.80
2023-02-17T02:07:28.837Z,11.23
2023-02-17T02:10:00.793Z,10.53
2023-02-17T02:12:33.949Z,9.93
2023-02-17T02:15:07.961Z,9.30
2023-02-17T02:17:42.490Z,10.00
2023-02-17T02:20:38.230Z,9.90
2023-02-17T02:23:21.042Z,11.10
2023-02-17T02:26:20.314Z,9.13
2023-02-17T02:29:02.349Z,9.07
2023-02-17T02:31:38.918Z,12.53
2023-02-17T02:34:12.706Z,11.87
2023-02-17T02:36:46.838Z,10.80
2023-02-17T02:39:20.450Z,10.63
2023-02-17T02:41:54.468Z,10.13
2023-02-17T02:44:25.697Z,10.07
2023-02-17T02:47:00.859Z,9.60
2023-02-17T02:49:33.461Z,9.40
2023-02-17T02:52:07.417Z,10.67
2023-02-17T02:54:47.572Z,9.77
2023-02-17T02:57:35.514Z,9.73
2023-02-17T03:00:13.845Z,9.10
2023-02-17T03:02:48.343Z,8.43
2023-02-17T03:05:23.899Z,10.00
2023-02-17T03:07:57.746Z,9.23
2023-02-17T03:10:29.410Z,9.47
2023-02-17T03:13:02.781Z,9.13
2023-02-17T03:15:35.458Z,9.97
2023-02-17T03:18:07.306Z,9.80
2023-02-17T03:20:41.085Z,8.60
2023-02-17T03:23:12.213Z,8.77
2023-02-17T03:25:44.922Z,8.87
2023-02-17T03:28:16.458Z,9.23
2023-02-17T03:30:47.653Z,9.70
2023-02-17T03:33:18.594Z,8.80
2023-02-17T03:35:49.470Z,8.43
2023-02-17T03:38:20.585Z,8.10
2023-02-17T03:40:53.331Z,8.43
2023-02-17T03:43:24.316Z,8.10
2023-02-17T03:45:55.379Z,8.63
2023-02-17T03:48:26.390Z,8.60
2023-02-17T03:50:57.299Z,7.33
2023-02-17T03:53:28.323Z,8.43
2023-02-17T03:55:59.252Z,9.00
2023-02-17T03:58:30.175Z,8.83
2023-02-17T04:01:01.256Z,7.67
2023-02-17T04:03:32.530Z,7.37
2023-02-17T04:06:04.248Z,8.27
2023-02-17T04:08:35.927Z,7.93
2023-02-17T04:11:08.318Z,8.77
2023-02-17T04:13:40.065Z,8.33
2023-02-17T04:16:12.391Z,8.07
2023-02-17T04:18:43.415Z,8.20
2023-02-17T04:21:14.475Z,8.10
2023-02-17T04:23:46.509Z,9.50
2023-02-17T04:26:17.594Z,9.27
2023-02-17T04:28:48.433Z,8.83
2023-02-17T04:31:19.483Z,8.53
2023-02-17T04:33:50.521Z,8.73
2023-02-17T04:36:21.540Z,8.07
2023-02-17T04:38:52.729Z,8.47
2023-02-17T04:41:24.039Z,8.57
2023-02-17T04:43:55.053Z,8.57
2023-02-17T04:46:26.132Z,8.97
2023-02-17T04:48:57.306Z,8.60
2023-02-17T04:51:28.366Z,8.30
2023-02-17T04:53:59.409Z,7.97
2023-02-17T04:56:30.727Z,10.03
2023-02-17T04:59:01.577Z,8.10
2023-02-17T05:01:32.549Z,8.50
2023-02-17T05:04:03.616Z,8.23
2023-02-17T05:06:34.716Z,8.93
2023-02-17T05:09:05.875Z,9.00
2023-02-17T05:11:36.794Z,8.77
2023-02-17T05:14:07.645Z,8.37
2023-02-17T05:16:38.810Z,8.50
2023-02-17T05:19:09.850Z,9.17
2023-02-17T05:21:41.125Z,9.57
2023-02-17T05:24:12.383Z,9.17
2023-02-17T05:26:43.586Z,9.60
2023-02-17T05:29:14.544Z,11.20
2023-02-17T05:31:45.663Z,7.63
2023-02-17T05:34:16.717Z,9.97
2023-02-17T05:36:47.620Z,8.07
2023-02-17T05:39:18.545Z,8.47
2023-02-17T05:41:49.480Z,8.23
2023-02-17T05:44:20.636Z,7.70
2023-02-17T05:46:51.735Z,10.47
2023-02-17T05:49:22.828Z,15.17
2023-02-17T05:51:53.820Z,9.70
2023-02-17T05:54:25.329Z,10.47
2023-02-17T05:56:56.429Z,9.33
2023-02-17T05:59:28.016Z,8.63
2023-02-17T06:01:58.987Z,8.80
2023-02-17T06:04:30.289Z,8.57
2023-02-17T06:07:02.640Z,8.50
2023-02-17T06:09:33.804Z,7.80
2023-02-17T06:12:04.832Z,8.47
2023-02-17T06:14:35.833Z,9.13
2023-02-17T06:17:06.972Z,7.60
2023-02-17T06:19:38.241Z,7.13
2023-02-17T06:22:09.094Z,7.70
2023-02-17T06:24:40.107Z,8.70
2023-02-17T06:27:11.062Z,7.77
2023-02-17T06:29:42.229Z,7.20
2023-02-17T06:32:13.185Z,6.90
2023-02-17T06:34:44.691Z,7.27
2023-02-17T06:37:16.029Z,6.83
2023-02-17T06:39:46.907Z,7.67
2023-02-17T06:42:17.793Z,7.70
2023-02-17T06:44:49.274Z,6.67
2023-02-17T06:47:20.427Z,7.70
2023-02-17T06:49:51.532Z,8.03
2023-02-17T06:52:22.451Z,7.47
2023-02-17T06:54:53.481Z,7.10
2023-02-17T06:57:24.821Z,7.47
2023-02-17T06:59:55.824Z,7.67
2023-02-17T07:02:27.994Z,7.43
2023-02-17T07:05:00.652Z,7.43
2023-02-17T07:07:31.809Z,7.60
2023-02-17T07:10:03.515Z,7.90
2023-02-17T07:12:34.611Z,7.87
2023-02-17T07:15:12.073Z,9.07
2023-02-17T07:17:41.690Z,7.90
2023-02-17T07:20:14.946Z,7.63
2023-02-17T07:22:46.113Z,10.73
2023-02-17T07:25:17.633Z,10.13
2023-02-17T07:27:48.971Z,7.70
2023-02-17T07:30:20.924Z,8.63
2023-02-17T07:32:51.913Z,9.73
2023-02-17T07:35:23.017Z,8.93
2023-02-17T07:37:53.915Z,8.20
2023-02-17T07:40:25.221Z,7.30
2023-02-17T07:42:58.253Z,7.57
2023-02-17T07:45:29.692Z,8.90
2023-02-17T07:48:00.676Z,8.87
2023-02-17T07:50:32.189Z,8.07
2023-02-17T07:53:03.393Z,7.43
2023-02-17T07:55:35.991Z,7.80
2023-02-17T07:58:07.053Z,9.10
2023-02-17T08:00:38.334Z,8.53
2023-02-17T08:03:10.886Z,8.47
2023-02-17T08:05:42.831Z,8.20
2023-02-17T08:08:31.094Z,7.83
2023-02-17T08:11:22.391Z,9.57
2023-02-17T08:13:53.535Z,7.97
2023-02-17T08:16:26.070Z,8.93
2023-02-17T08:18:57.537Z,9.57
2023-02-17T08:21:30.299Z,9.13
2023-02-17T08:24:01.249Z,9.07
2023-02-17T08:26:32.226Z,8.73
2023-02-17T08:29:03.174Z,8.60
2023-02-17T08:31:36.318Z,8.17
2023-02-17T08:34:09.385Z,9.03
2023-02-17T08:36:40.552Z,8.77
2023-02-17T08:39:14.118Z,8.77
2023-02-17T08:41:46.862Z,9.00
2023-02-17T08:44:20.982Z,9.27
2023-02-17T08:46:53.150Z,8.30
2023-02-17T08:49:27.126Z,8.80
2023-02-17T08:51:58.163Z,9.43
2023-02-17T08:54:29.156Z,8.87
2023-02-17T08:57:01.346Z,8.33
2023-02-17T08:59:32.275Z,8.67
2023-02-17T09:02:03.320Z,9.00
2023-02-17T09:04:34.560Z,9.90
2023-02-17T09:07:05.703Z,9.43
2023-02-17T09:09:37.289Z,9.27
2023-02-17T09:12:09.603Z,9.37
2023-02-17T09:14:41.297Z,9.07
2023-02-17T09:17:12.988Z,9.67
2023-02-17T09:19:44.385Z,9.73
2023-02-17T09:22:30.825Z,9.90
2023-02-17T09:24:50.006Z,9.83
2023-02-17T09:27:21.565Z,9.93
2023-02-17T09:29:52.839Z,9.33
2023-02-17T09:32:24.681Z,10.07
2023-02-17T09:35:03.532Z,10.20
2023-02-17T09:37:34.462Z,10.30
2023-02-17T09:40:07.014Z,11.53
2023-02-17T09:42:40.785Z,11.33
2023-02-17T09:45:15.467Z,9.97
2023-02-17T09:47:49.558Z,10.80
2023-02-17T09:50:23.321Z,10.60
2023-02-17T09:52:57.103Z,10.97
2023-02-17T09:55:30.893Z,11.30
2023-02-17T09:58:06.094Z,11.87
2023-02-17T10:00:39.766Z,11.60
2023-02-17T10:03:16.558Z,11.50
2023-02-17T10:08:30.243Z,10.90
2023-02-17T10:11:04.490Z,10.60
2023-02-17T10:13:38.260Z,10.60
2023-02-17T10:16:12.382Z,11.57
2023-02-17T10:18:47.091Z,11.43
2023-02-17T10:21:22.375Z,11.60
2023-02-17T10:23:53.369Z,10.93
2023-02-17T10:26:30.310Z,11.60
2023-02-17T10:29:04.416Z,11.30
2023-02-17T10:34:26.654Z,11.43
2023-02-17T10:37:00.768Z,11.27
2023-02-17T10:39:39.237Z,10.40
2023-02-17T10:42:12.998Z,10.47
2023-02-17T10:44:43.906Z,11.40
2023-02-17T10:47:15.854Z,11.17
2023-02-17T10:49:49.699Z,12.67
2023-02-17T10:52:23.094Z,13.53
2023-02-17T10:54:57.777Z,11.60
2023-02-17T10:57:32.403Z,12.80
2023-02-17T11:00:05.811Z,13.37
2023-02-17T11:02:39.645Z,13.73
2023-02-17T11:05:12.570Z,11.63
2023-02-17T11:07:44.356Z,12.20
2023-02-17T11:10:26.923Z,13.30
2023-02-17T11:12:59.163Z,18.47
2023-02-17T11:15:33.658Z,17.67
2023-02-17T11:18:12.408Z,19.90
2023-02-17T11:20:43.736Z,16.80
2023-02-17T11:23:26.045Z,14.43
2023-02-17T11:26:19.736Z,15.60
2023-02-17T11:28:50.849Z,14.90
2023-02-17T11:31:29.727Z,13.40
2023-02-17T11:34:01.326Z,12.77
2023-02-17T11:36:33.325Z,12.83
2023-02-17T11:41:54.348Z,10.03
2023-02-17T11:44:30.782Z,10.67
2023-02-17T11:47:09.920Z,10.77
2023-02-17T11:49:59.724Z,10.03
2023-02-17T11:52:38.760Z,10.50
2023-02-17T11:55:19.600Z,9.93
2023-02-17T11:57:58.037Z,10.57
2023-02-17T12:03:47.838Z,9.40
2023-02-17T12:06:21.951Z,9.77
2023-02-17T12:09:03.336Z,10.17
2023-02-17T12:11:38.278Z,8.60
2023-02-17T12:14:27.107Z,8.30
2023-02-17T12:17:01.984Z,8.30
2023-02-17T12:19:40.740Z,8.10
2023-02-17T12:22:26.020Z,11.67
2023-02-17T12:25:22.856Z,9.50
2023-02-17T12:28:00.271Z,8.30
2023-02-17T12:30:48.900Z,8.85
2023-02-17T12:33:28.729Z,8.33
2023-02-17T12:36:02.680Z,8.50
2023-02-17T12:41:16.954Z,7.20
2023-02-17T12:43:51.313Z,8.07
2023-02-17T12:46:25.558Z,7.33
2023-02-17T12:48:59.938Z,6.03
2023-02-17T12:51:33.670Z,6.37
2023-02-17T12:56:56.604Z,6.07
2023-02-17T12:59:31.118Z,5.73
2023-02-17T13:02:05.161Z,4.90
2023-02-17T13:04:36.930Z,4.57
2023-02-17T13:07:34.507Z,4.43
2023-02-17T13:10:05.805Z,4.47
2023-02-17T13:12:40.744Z,4.83
2023-02-17T13:15:46.671Z,4.40
2023-02-17T13:18:29.466Z,4.67
2023-02-17T13:21:02.950Z,5.50
2023-02-17T13:23:40.386Z,4.43
2023-02-17T13:26:31.118Z,3.90
2023-02-17T13:29:24.593Z,4.83
2023-02-17T13:31:58.112Z,5.53
2023-02-17T13:34:32.894Z,5.20
2023-02-17T13:37:05.918Z,4.80
2023-02-17T13:39:39.081Z,4.60
2023-02-17T13:42:47.814Z,4.60
2023-02-17T13:45:24.178Z,4.47
2023-02-17T13:47:57.150Z,4.13
2023-02-17T13:50:34.884Z,4.33
2023-02-17T13:53:11.580Z,4.47
2023-02-17T13:55:43.049Z,4.80
2023-02-17T13:58:13.843Z,4.07
2023-02-17T14:00:46.544Z,4.70
2023-02-17T14:03:21.060Z,4.67
2023-02-17T14:05:53.713Z,4.20
2023-02-17T14:08:30.795Z,3.50
2023-02-17T14:11:05.626Z,3.57
2023-02-17T14:13:38.132Z,3.77
2023-02-17T14:16:09.820Z,3.10
2023-02-17T14:18:43.244Z,3.07
2023-02-17T14:21:18.554Z,3.23
2023-02-17T14:23:52.334Z,3.17
2023-02-17T14:26:32.381Z,2.93
2023-02-17T14:29:05.884Z,3.72
2023-02-17T14:31:41.597Z,3.23
2023-02-17T14:34:21.028Z,2.60
2023-02-17T14:36:51.885Z,2.77
2023-02-17T14:39:23.351Z,2.63
2023-02-17T14:41:54.196Z,2.70
2023-02-17T14:44:24.886Z,3.17
2023-02-17T14:46:55.769Z,2.90
2023-02-17T14:49:26.561Z,3.27
2023-02-17T14:51:57.526Z,2.60
2023-02-17T14:54:30.527Z,2.93
2023-02-17T14:57:06.476Z,2.40
2023-02-17T14:59:37.539Z,2.43
2023-02-17T15:02:15.176Z,2.10
2023-02-17T15:04:46.331Z,2.10
2023-02-17T15:07:19.516Z,2.60
2023-02-17T15:09:50.940Z,2.10
2023-02-17T15:12:26.510Z,2.10
2023-02-17T15:14:56.841Z,2.20
2023-02-17T15:17:27.663Z,2.10
2023-02-17T15:19:58.415Z,2.10
2023-02-17T15:22:29.149Z,2.10
2023-02-17T15:24:59.757Z,2.13
2023-02-17T15:27:30.512Z,2.00
2023-02-17T15:30:01.249Z,2.23
2023-02-17T15:32:32.135Z,2.10
2023-02-17T15:35:02.958Z,2.90
2023-02-17T15:37:33.623Z,2.23
2023-02-17T15:40:04.857Z,2.50
2023-02-17T15:42:35.586Z,2.10
2023-02-17T15:45:07.006Z,2.00
2023-02-17T15:47:37.709Z,2.00
2023-02-17T15:50:19.186Z,2.10
2023-02-17T15:52:50.479Z,2.20
2023-02-17T15:55:23.713Z,1.80
2023-02-17T15:57:57.891Z,2.40
2023-02-17T16:00:30.375Z,2.73
2023-02-17T16:03:01.637Z,2.37
2023-02-17T16:05:34.034Z,2.67
2023-02-17T16:08:05.334Z,2.30
2023-02-17T16:10:37.138Z,2.23
2023-02-17T16:13:08.484Z,2.30
2023-02-17T16:15:41.735Z,2.47
2023-02-17T16:20:55.326Z,3.17
2023-02-17T16:23:26.639Z,2.63
2023-02-17T16:25:59.339Z,3.50
2023-02-17T16:28:31.430Z,2.73
2023-02-17T16:31:02.784Z,3.13
2023-02-17T16:33:33.915Z,3.03
2023-02-17T16:36:05.857Z,3.17
2023-02-17T16:38:37.841Z,3.23
2023-02-17T16:41:09.261Z,3.27
2023-02-17T16:43:40.459Z,3.07
2023-02-17T16:48:58.266Z,3.10
2023-02-17T16:51:29.805Z,3.20
2023-02-17T16:54:00.864Z,3.50
2023-02-17T16:56:34.993Z,3.00
2023-02-17T16:59:06.071Z,2.80
2023-02-17T17:01:36.981Z,2.90
2023-02-17T17:04:08.942Z,3.30
2023-02-17T17:06:42.047Z,2.70
2023-02-17T17:09:17.990Z,2.50
2023-02-17T17:11:48.943Z,2.50
2023-02-17T17:14:21.673Z,2.60
2023-02-17T17:16:55.637Z,2.90
2023-02-17T17:19:28.424Z,2.57
2023-02-17T17:22:02.469Z,3.03
2023-02-17T17:24:35.840Z,2.90
2023-02-17T17:27:09.846Z,3.13
2023-02-17T17:29:42.119Z,2.63
2023-02-17T17:32:13.482Z,2.47
2023-02-17T17:34:45.288Z,3.27
2023-02-17T17:37:16.005Z,3.20
2023-02-17T17:39:47.267Z,3.23
2023-02-17T17:42:18.171Z,2.73
2023-02-17T17:44:49.205Z,2.97
2023-02-17T17:47:29.728Z,3.23
2023-02-17T17:49:53.970Z,2.47
2023-02-17T17:52:24.854Z,2.40
2023-02-17T17:54:55.453Z,3.03
2023-02-17T17:57:26.459Z,2.53
2023-02-17T17:59:57.343Z,2.90
2023-02-17T18:02:28.397Z,3.00
2023-02-17T18:04:59.173Z,2.98
2023-02-17T18:07:31.780Z,2.70
2023-02-17T18:10:06.088Z,2.30
2023-02-17T18:12:37.593Z,2.17
2023-02-17T18:15:10.982Z,2.20
2023-02-17T18:20:18.499Z,2.27
2023-02-17T18:22:49.893Z,2.00
2023-02-17T18:25:21.522Z,2.60
2023-02-17T18:27:52.917Z,2.30
2023-02-17T18:33:03.254Z,2.20
2023-02-17T18:35:36.959Z,2.60
2023-02-17T18:38:07.945Z,2.47
2023-02-17T18:40:40.539Z,2.53
2023-02-17T18:43:11.974Z,3.07
2023-02-17T18:46:01.654Z,2.80
2023-02-17T18:48:32.974Z,2.93
2023-02-17T18:51:07.915Z,2.70
2023-02-17T18:53:39.020Z,3.40
2023-02-17T18:56:14.197Z,3.47
2023-02-17T19:01:24.307Z,3.17
2023-02-17T19:03:56.311Z,4.10
2023-02-17T19:06:30.041Z,3.87
2023-02-17T19:09:01.065Z,3.97
2023-02-17T19:11:32.701Z,3.80
2023-02-17T19:14:04.379Z,3.80
2023-02-17T19:16:35.642Z,4.23
2023-02-17T19:19:08.062Z,3.20
2023-02-17T19:21:41.549Z,3.70
2023-02-17T19:24:14.960Z,3.87
2023-02-17T19:26:48.079Z,3.60
2023-02-17T19:29:18.959Z,3.37
2023-02-17T19:31:50.808Z,4.10
2023-02-17T19:34:22.645Z,3.77
2023-02-17T19:36:54.031Z,3.40
2023-02-17T19:39:25.555Z,3.50
2023-02-17T19:41:56.517Z,4.57
2023-02-17T19:44:27.779Z,4.30
2023-02-17T19:46:59.181Z,4.13
2023-02-17T19:49:30.762Z,4.20
2023-02-17T19:52:03.089Z,4.70
2023-02-17T19:54:35.294Z,4.00
2023-02-17T19:57:06.755Z,4.00
2023-02-17T19:59:38.114Z,3.90
2023-02-17T20:02:10.983Z,4.00
2023-02-17T20:04:42.744Z,3.77
2023-02-17T20:07:13.923Z,4.50
2023-02-17T20:09:45.365Z,4.30
2023-02-17T20:12:18.204Z,4.27
2023-02-17T20:14:49.598Z,4.37
2023-02-17T20:17:23.736Z,4.13
2023-02-17T20:19:54.929Z,4.07
2023-02-17T20:22:25.804Z,3.63
2023-02-17T20:24:56.593Z,4.37
2023-02-17T20:27:28.335Z,4.00
2023-02-17T20:30:01.093Z,3.80
2023-02-17T20:32:32.185Z,4.07
2023-02-17T20:35:03.132Z,3.80
2023-02-17T20:37:33.906Z,3.50
2023-02-17T20:40:05.138Z,4.03
2023-02-17T20:42:36.015Z,4.20
2023-02-17T20:45:08.492Z,3.83
2023-02-17T20:47:39.465Z,4.20
2023-02-17T20:50:14.147Z,4.20
2023-02-17T20:52:45.374Z,4.50
2023-02-17T20:55:18.009Z,4.03
2023-02-17T20:57:48.755Z,3.67
2023-02-17T21:00:22.946Z,3.50
2023-02-17T21:02:53.841Z,4.17
2023-02-17T21:05:26.450Z,4.43
2023-02-17T21:07:58.451Z,4.07
2023-02-17T21:10:31.678Z,4.50
2023-02-17T21:13:02.265Z,3.90
2023-02-17T21:15:34.485Z,3.93
2023-02-17T21:18:05.654Z,3.50
2023-02-17T21:20:36.254Z,4.13
2023-02-17T21:23:07.014Z,3.97
2023-02-17T21:25:38.087Z,3.83
2023-02-17T21:28:08.762Z,4.37
2023-02-17T21:30:39.380Z,4.10
2023-02-17T21:33:10.018Z,3.80
2023-02-17T21:35:40.786Z,3.53
2023-02-17T21:38:12.970Z,3.67
2023-02-17T21:40:43.742Z,3.13
2023-02-17T21:43:32.347Z,3.40
2023-02-17T21:46:04.552Z,3.57
2023-02-17T21:48:34.630Z,4.03
2023-02-17T21:51:11.157Z,4.73
2023-02-17T21:53:41.813Z,4.00
2023-02-17T21:56:12.555Z,3.83
2023-02-17T21:58:46.182Z,3.90
2023-02-17T22:01:17.089Z,4.47
2023-02-17T22:03:48.218Z,4.00
2023-02-17T22:06:20.918Z,3.53
2023-02-17T22:08:51.645Z,3.30
2023-02-17T22:11:24.507Z,3.30
2023-02-17T22:13:57.887Z,3.40
2023-02-17T22:16:30.483Z,3.63
2023-02-17T22:19:01.564Z,3.33
2023-02-17T22:21:32.727Z,3.60
2023-02-17T22:24:03.898Z,3.63
2023-02-17T22:26:34.796Z,3.40
2023-02-17T22:29:05.471Z,3.97
2023-02-17T22:31:36.444Z,3.93
2023-02-17T22:34:10.683Z,4.40
2023-02-17T22:36:41.397Z,4.03
2023-02-17T22:39:11.981Z,3.57
2023-02-17T22:41:43.084Z,4.00
2023-02-17T22:44:13.709Z,3.17
2023-02-17T22:46:44.465Z,3.57
2023-02-17T22:49:15.036Z,3.30
2023-02-17T22:51:45.761Z,3.20
2023-02-17T22:54:16.413Z,3.77
2023-02-17T22:56:47.132Z,3.67
2023-02-17T22:59:17.917Z,3.77
2023-02-17T23:01:48.647Z,3.83
2023-02-17T23:04:19.679Z,4.17
2023-02-17T23:06:50.434Z,3.67
2023-02-17T23:09:21.616Z,4.00
2023-02-17T23:11:54.220Z,4.20
2023-02-17T23:14:28.075Z,4.30
2023-02-17T23:19:39.249Z,4.50
2023-02-17T23:22:14.459Z,4.30
2023-02-17T23:24:45.174Z,4.50
2023-02-17T23:27:16.694Z,5.00
2023-02-17T23:29:47.313Z,4.50
2023-02-17T23:32:17.984Z,4.97
2023-02-17T23:34:48.660Z,5.13
2023-02-17T23:37:19.318Z,5.33
2023-02-17T23:39:49.934Z,5.30
2023-02-17T23:42:20.617Z,6.03
2023-02-17T23:44:51.254Z,5.30
2023-02-17T23:47:22.053Z,5.20
2023-02-17T23:49:52.615Z,5.83
2023-02-17T23:52:23.246Z,5.50
2023-02-17T23:54:54.181Z,5.23
2023-02-17T23:57:24.789Z,5.60
2023-02-17T23:59:55.759Z,4.93
